TimePST,TemperatureF,Dew PointF,Humidity,Sea Level PressureIn,VisibilityMPH,Wind Direction,Wind SpeedMPH,Gust SpeedMPH,PrecipitationIn,Events,Conditions,WindDirDegrees,DateUTC
12:52 AM,34.0,26.1,73,30.02,10.0,NW,3.5,-,N/A,,Overcast,320,2013-02-25 08:52:00
1:52 AM,33.8,26.6,75,29.97,10.0,Calm,Calm,-,N/A,,Mostly Cloudy,0,2013-02-25 09:52:00
2:52 AM,37.0,27.0,67,29.97,10.0,South,6.9,-,0.00,,Overcast,190,2013-02-25 10:52:00
3:02 AM,37.4,28.4,70,29.94,7.0,South,4.6,-,0.00,Snow,Light Snow,190,2013-02-25 11:02:00
3:21 AM,35.6,28.4,75,29.92,10.0,SSE,5.8,-,0.00,,Overcast,160,2013-02-25 11:21:00
3:52 AM,36.0,30.0,79,29.93,10.0,SSE,6.9,-,0.00,,Overcast,160,2013-02-25 11:52:00
4:06 AM,35.6,30.2,81,29.90,10.0,SSE,5.8,-,N/A,,Overcast,150,2013-02-25 12:06:00
4:52 AM,35.1,30.9,85,29.94,10.0,Calm,Calm,-,N/A,,Overcast,0,2013-02-25 12:52:00
5:48 AM,35.6,32.0,87,29.89,10.0,South,9.2,-,0.00,,Overcast,170,2013-02-25 13:48:00
5:52 AM,36.0,32.0,86,29.91,10.0,SSE,9.2,-,0.00,,Overcast,160,2013-02-25 13:52:00
6:01 AM,35.6,32.0,87,29.89,10.0,South,10.4,-,0.00,,Overcast,170,2013-02-25 14:01:00
6:52 AM,37.0,32.0,82,29.93,10.0,South,10.4,-,0.00,,Scattered Clouds,190,2013-02-25 14:52:00
7:52 AM,37.9,32.0,79,29.93,10.0,SSW,11.5,-,N/A,,Clear,200,2013-02-25 15:52:00
8:52 AM,42.1,33.1,70,29.93,10.0,SW,13.8,21.9,N/A,,Clear,220,2013-02-25 16:52:00
9:52 AM,44.1,30.9,60,29.94,10.0,SW,17.3,-,N/A,,Clear,230,2013-02-25 17:52:00
10:52 AM,45.0,28.9,53,29.94,10.0,SW,20.7,27.6,N/A,,Clear,230,2013-02-25 18:52:00
11:52 AM,46.9,26.1,44,29.93,10.0,WSW,28.8,41.4,0.01,,Clear,250,2013-02-25 19:52:00
12:52 PM,48.0,25.0,41,29.94,10.0,WSW,27.6,35.7,N/A,,Clear,250,2013-02-25 20:52:00
1:52 PM,48.9,23.0,36,29.95,7.0,WSW,21.9,29.9,N/A,,Clear,250,2013-02-25 21:52:00
2:52 PM,48.9,21.0,33,29.97,10.0,West,19.6,25.3,N/A,,Clear,260,2013-02-25 22:52:00
3:52 PM,48.0,19.9,33,29.99,10.0,West,15.0,-,N/A,,Clear,260,2013-02-25 23:52:00
4:52 PM,46.0,24.1,42,30.01,10.0,West,10.4,-,N/A,,Clear,260,2013-02-26 00:52:00
5:52 PM,44.1,24.1,45,30.05,10.0,West,5.8,-,N/A,,Scattered Clouds,270,2013-02-26 01:52:00
6:52 PM,39.0,24.1,55,30.08,10.0,West,6.9,-,N/A,,Clear,270,2013-02-26 02:52:00
7:52 PM,37.0,24.1,59,30.09,10.0,West,9.2,-,N/A,,Clear,260,2013-02-26 03:52:00
8:52 PM,36.0,25.0,64,30.11,10.0,West,10.4,-,N/A,,Clear,260,2013-02-26 04:52:00
9:52 PM,35.1,24.1,64,30.12,10.0,WSW,10.4,-,N/A,,Clear,240,2013-02-26 05:52:00
10:52 PM,34.0,24.1,67,30.14,10.0,SW,8.1,-,N/A,,Clear,220,2013-02-26 06:52:00
11:52 PM,32.0,23.0,69,30.18,10.0,SW,4.6,-,N/A,,Clear,220,2013-02-26 07:52:00